Terminal Aerodrome Forecast
Issued by NWS Houston/Galveston TX

Home | Current Version | Previous Version | Text Only | Print | Product List | Glossary On
Versions: 1 2 3 4 5 6 7 8 9 10 11 12 13 14 15 16 17 18 19 20 21 22 23 24 25 26
000
FTUS44 KHGX 221729
TAFHOU
TAF
KHOU 221729Z 2218/2318 VRB06KT P6SM VCTS SCT030CB
      TEMPO 2218/2221 VRB15KT 4SM TSRA BKN025CB
     FM222100 18008KT P6SM VCSH SCT050
     FM230100 19006KT P6SM FEW035
     FM231200 22004KT P6SM SCT020
     FM231600 22007KT P6SM VCSH SCT040=

USA.gov is the U.S. government's official web portal to all federal, state and local government web resources and services.